Commodore Goodwill — C6NU8 — position and weather

sailwx.info

Track history (hours):
 
Tides and Currents Weather Stations Pressure Air Temp Water Temp Dewpoint Dewpoint Depression Visibility Wind Speed Wind Dir Waves Ship Positions

Commodore Goodwill

Operator: Condor Marine Services

Last reported at 2019-Jul-22 13:30 UTC. Time now 2019-Jul-22 13:47 UTC.
Position N 50°29' W 001°15'.

Length 126 m; draft 4.6 m.

Type: Ship (hazmat cat C). MMSI: 309536000.

Date/timePositionNaut miles runAvg speedWind from/ knotsBaromVisibWave heightAir tempDewpointWater temp
2019-Jul-22 13:30N 50°29' W 001°15'815.4
2019-Jul-22 13:00N 50°23' W 001°22'815.8
2019-Jul-22 12:30N 50°16' W 001°28'816.0
2019-Jul-22 12:00N 50°09' W 001°35'815.8
2019-Jul-22 11:30N 50°03' W 001°42'816.0
2019-Jul-22 11:01N 49°56' W 001°48'917.2
2019-Jul-22 10:30N 49°49' W 001°56'1118.8
2019-Jul-22 09:57N 49°40' W 002°04'818.6
2019-Jul-22 09:30N 49°33' W 002°09'816.1
2019-Jul-22 09:00N 49°25' W 002°15'816.1
2019-Jul-22 08:30N 49°18' W 002°20'714.4
2019-Jul-22 08:00N 49°11' W 002°19'612.0
2019-Jul-22 07:29N 49°10' W 002°10'2 1.1
2019-Jul-22 05:40N 49°11' W 002°07'1 5.4
2019-Jul-22 05:27N 49°10' W 002°08'614.4
2019-Jul-22 05:00N 49°10' W 002°18'8 9.7
2019-Jul-22 04:12N 49°17' W 002°24'1 7.4
2019-Jul-22 04:00N 49°18' W 002°25'4 7.2
2019-Jul-22 03:30N 49°22' W 002°27'4 7.2
2019-Jul-22 03:00N 49°25' W 002°29'3 6.0
2019-Jul-22 02:30N 49°27' W 002°32'0 0.0
2019-Jul-22 02:00N 49°27' W 002°32'4 7.4
2019-Jul-22 01:31N 49°26' W 002°26'815.4
2019-Jul-22 01:00N 49°31' W 002°17'714.5
2019-Jul-22 00:30N 49°36' W 002°08'1111.7
2019-Jul-21 23:32N 49°46' W 002°01'010.6
2019-Jul-21 23:30N 49°46' W 002°01'5 9.7
2019-Jul-21 23:00N 49°50' W 001°56'510.7
2019-Jul-21 22:30N 49°55' W 001°52'611.2
2019-Jul-21 22:00N 49°59' W 001°47'611.4
2019-Jul-21 21:30N 50°04' W 001°42'612.3
2019-Jul-21 20:59N 50°09' W 001°37'612.9
2019-Jul-21 20:30N 50°15' W 001°32'713.2
2019-Jul-21 20:00N 50°20' W 001°26'713.7
2019-Jul-21 19:30N 50°26' W 001°19'713.2
2019-Jul-21 19:00N 50°31' W 001°13'510.5
2019-Jul-21 18:30N 50°35' W 001°08'612.8
2019-Jul-21 18:01N 50°41' W 001°03'714.8
2019-Jul-21 17:30N 50°48' W 001°07'1 2.6
2019-Jul-21 17:00N 50°49' W 001°06'0 0.0
2019-Jul-21 16:30N 50°49' W 001°06'0 0.0
2019-Jul-21 16:00N 50°49' W 001°06'0 0.0
2019-Jul-21 15:30N 50°49' W 001°06'0 0.0
2019-Jul-21 15:00N 50°49' W 001°06'0 0.0
2019-Jul-21 14:30N 50°49' W 001°06'0 0.0
2019-Jul-21 14:00N 50°49' W 001°06'0 0.0
2019-Jul-21 13:30N 50°49' W 001°06'0 0.0
2019-Jul-21 13:00N 50°49' W 001°06'0 0.0
2019-Jul-21 12:30N 50°49' W 001°06'0 0.0
2019-Jul-21 12:00N 50°49' W 001°06'0 0.0
2019-Jul-21 11:30N 50°49' W 001°06'0 0.0
2019-Jul-21 11:00N 50°49' W 001°06'0 0.0
2019-Jul-21 10:30N 50°49' W 001°06'0 0.0
2019-Jul-21 10:00N 50°49' W 001°06'0 0.0
2019-Jul-21 09:30N 50°49' W 001°06'1 1.8
2019-Jul-21 09:00N 50°49' W 001°07'2 3.9
2019-Jul-21 08:30N 50°47' W 001°06'611.5
2019-Jul-21 08:00N 50°41' W 001°02'2 4.5
2019-Jul-21 07:31N 50°44' W 001°03'2 3.5
2019-Jul-21 07:00N 50°42' W 001°03'4 8.1
2019-Jul-21 06:30N 50°46' W 001°05'3 6.3
2019-Jul-21 06:00N 50°49' W 001°06'0 0.0
2019-Jul-21 05:30N 50°49' W 001°06'0 0.0
2019-Jul-21 05:00N 50°49' W 001°06'0 0.0
2019-Jul-21 04:30N 50°49' W 001°06'0 0.0
2019-Jul-21 04:00N 50°49' W 001°06'0 0.0
2019-Jul-21 03:30N 50°49' W 001°06'0 0.0
2019-Jul-21 03:00N 50°49' W 001°06'0 0.0
2019-Jul-21 02:30N 50°49' W 001°06'0 0.0
2019-Jul-21 02:00N 50°49' W 001°06'0 0.0
2019-Jul-21 01:30N 50°49' W 001°06'0 0.0
2019-Jul-21 01:00N 50°49' W 001°06'0 0.0
2019-Jul-21 00:30N 50°49' W 001°06'0 0.0
2019-Jul-21 00:00N 50°49' W 001°06'0 0.0
2019-Jul-20 23:30N 50°49' W 001°06'0 0.0
2019-Jul-20 23:00N 50°49' W 001°06'0 0.0
2019-Jul-20 22:30N 50°49' W 001°06'0 0.0
2019-Jul-20 22:00N 50°49' W 001°06'0 0.0
2019-Jul-20 21:30N 50°49' W 001°06'0 0.0
2019-Jul-20 21:00N 50°49' W 001°06'0 0.0
2019-Jul-20 20:30N 50°49' W 001°06'0 0.0
2019-Jul-20 20:00N 50°49' W 001°06'0 0.0
2019-Jul-20 19:30N 50°49' W 001°06'0 0.0
2019-Jul-20 19:00N 50°49' W 001°06'0 0.0
2019-Jul-20 18:30N 50°49' W 001°06'0 0.0
2019-Jul-20 18:00N 50°49' W 001°06'0 0.0
2019-Jul-20 17:30N 50°49' W 001°06'0 0.0
2019-Jul-20 17:00N 50°49' W 001°06'0 0.0
2019-Jul-20 16:30N 50°49' W 001°06'0 0.0
2019-Jul-20 16:00N 50°49' W 001°06'0 0.0
2019-Jul-20 15:30N 50°49' W 001°06'2 3.2
2019-Jul-20 15:01N 50°47' W 001°07'714.6
2019-Jul-20 14:30N 50°40' W 001°04'611.6
2019-Jul-20 14:00N 50°35' W 001°09'611.0
2019-Jul-20 13:30N 50°31' W 001°14'612.3
2019-Jul-20 13:00N 50°25' W 001°19'712.6
2019-Jul-20 12:25N 50°19' W 001°24'513.0
2019-Jul-20 12:00N 50°14' W 001°27'711.7
2019-Jul-20 11:25N 50°08' W 001°33'512.0
2019-Jul-20 11:00N 50°05' W 001°38'714.7
2019-Jul-20 10:30N 49°59' W 001°46'917.5
2019-Jul-20 10:00N 49°52' W 001°54'1118.9
2019-Jul-20 09:25N 49°43' W 002°04'918.4
2019-Jul-20 08:57N 49°35' W 002°09'817.1
2019-Jul-20 08:30N 49°28' W 002°13'816.7
2019-Jul-20 08:00N 49°20' W 002°18'1015.0
2019-Jul-20 07:22N 49°10' W 002°18'716.4
2019-Jul-20 06:57N 49°10' W 002°08'0 0.1
2019-Jul-20 04:45N 49°10' W 002°08'619.6
2019-Jul-20 04:26N 49°10' W 002°17'717.2
2019-Jul-20 04:00N 49°16' W 002°23'816.9
2019-Jul-20 03:30N 49°24' W 002°28'4 7.5
2019-Jul-20 03:00N 49°27' W 002°32'0 0.0
2019-Jul-20 02:30N 49°27' W 002°32'3 5.2
2019-Jul-20 02:01N 49°25' W 002°29'918.7
2019-Jul-20 01:30N 49°31' W 002°17'917.6
2019-Jul-20 00:59N 49°38' W 002°08'918.3
2019-Jul-20 00:28N 49°46' W 002°01'716.2
2019-Jul-20 00:00N 49°52' W 001°54'815.6
2019-Jul-19 23:31N 49°58' W 001°46'815.4
2019-Jul-19 23:00N 50°04' W 001°40'714.9
2019-Jul-19 22:30N 50°10' W 001°32'714.6
2019-Jul-19 22:00N 50°15' W 001°24'815.4
2019-Jul-19 21:31N 50°22' W 001°19'815.3
2019-Jul-19 21:01N 50°29' W 001°14'714.7
2019-Jul-19 20:30N 50°36' W 001°09'714.9
2019-Jul-19 20:01N 50°42' W 001°03'714.1
2019-Jul-19 19:30N 50°48' W 001°07'1 1.8
2019-Jul-19 19:00N 50°49' W 001°06'0 0.0
2019-Jul-19 18:30N 50°49' W 001°06'0 0.0
2019-Jul-19 18:00N 50°49' W 001°06'0 0.0
2019-Jul-19 17:30N 50°49' W 001°06'0 0.0
2019-Jul-19 17:00N 50°49' W 001°06'0 0.0
2019-Jul-19 16:30N 50°49' W 001°06'1 1.4
2019-Jul-19 16:00N 50°49' W 001°07'612.4
2019-Jul-19 15:30N 50°43' W 001°03'815.0
2019-Jul-19 15:00N 50°36' W 001°08'715.0
2019-Jul-19 14:30N 50°30' W 001°15'2616.7
2019-Jul-19 12:56N 50°08' W 001°37'817.7
2019-Jul-19 12:30N 50°01' W 001°44'918.3
2019-Jul-19 12:00N 49°54' W 001°52'1019.1
2019-Jul-19 11:30N 49°46' W 001°60'1018.0
2019-Jul-19 10:57N 49°39' W 002°12'818.6
2019-Jul-19 10:30N 49°34' W 002°22'918.3
2019-Jul-19 10:00N 49°27' W 002°31'0 0.4
2019-Jul-19 09:30N 49°27' W 002°32'0 0.0
2019-Jul-19 09:01N 49°27' W 002°32'0 0.0
2019-Jul-19 08:30N 49°27' W 002°32'0 0.0
2019-Jul-19 08:00N 49°27' W 002°32'510.4
2019-Jul-19 07:30N 49°23' W 002°27'917.5
2019-Jul-19 07:00N 49°15' W 002°22'11 4.0
2019-Jul-19 04:15N 49°11' W 002°07'1 3.6
2019-Jul-19 03:58N 49°10' W 002°08'613.9
2019-Jul-19 03:30N 49°10' W 002°17'714.8
2019-Jul-19 03:00N 49°18' W 002°20'612.9
2019-Jul-19 02:30N 49°23' W 002°16'612.9
2019-Jul-19 02:00N 49°29' W 002°12'713.7
2019-Jul-19 01:31N 49°36' W 002°08'1219.0
2019-Jul-19 00:54N 49°46' W 002°01'718.0
2019-Jul-19 00:30N 49°53' W 001°56'917.6
2019-Jul-19 00:00N 50°00' W 001°49'816.6
2019-Jul-18 23:30N 50°07' W 001°41'816.0
2019-Jul-18 23:00N 50°13' W 001°33'815.8
2019-Jul-18 22:30N 50°19' W 001°26'815.5
2019-Jul-18 22:00N 50°26' W 001°19'714.9
2019-Jul-18 21:30N 50°32' W 001°12'714.7
2019-Jul-18 21:00N 50°38' W 001°06'714.1
2019-Jul-18 20:30N 50°45' W 001°05'4 7.6
2019-Jul-18 20:00N 50°49' W 001°06'0 0.0
2019-Jul-18 19:30N 50°49' W 001°06'0 0.0
2019-Jul-18 19:00N 50°49' W 001°06'0 0.0
2019-Jul-18 18:30N 50°49' W 001°06'0 0.0
2019-Jul-18 18:00N 50°49' W 001°06'0 0.2
2019-Jul-18 17:30N 50°49' W 001°06'0 0.0
2019-Jul-18 17:00N 50°49' W 001°06'0 0.0
2019-Jul-18 16:30N 50°49' W 001°06'0 0.1
2019-Jul-18 16:00N 50°49' W 001°06'0 0.9
2019-Jul-18 15:30N 50°49' W 001°07'2 4.1
2019-Jul-18 15:00N 50°47' W 001°06'713.4
2019-Jul-18 14:30N 50°40' W 001°04'714.5
2019-Jul-18 14:01N 50°34' W 001°11'510.2
2019-Jul-18 13:31N 50°30' W 001°15'711.4
2019-Jul-18 12:54N 50°24' W 001°22'512.2
2019-Jul-18 12:31N 50°20' W 001°25'612.8
2019-Jul-18 12:00N 50°14' W 001°29'714.0
2019-Jul-18 11:31N 50°08' W 001°35'815.1
2019-Jul-18 11:01N 50°02' W 001°41'815.8
2019-Jul-18 10:30N 49°55' W 001°48'816.6
2019-Jul-18 10:00N 49°49' W 001°57'1317.6
2019-Jul-18 09:16N 49°38' W 002°07'516.0
2019-Jul-18 08:58N 49°34' W 002°10'919.9
2019-Jul-18 08:31N 49°25' W 002°15'1020.5
2019-Jul-18 08:01N 49°16' W 002°21'10 3.2
2019-Jul-18 04:45N 49°10' W 002°08'619.6
2019-Jul-18 04:26N 49°10' W 002°17'712.7
2019-Jul-18 03:53N 49°16' W 002°23'411.2
2019-Jul-18 03:30N 49°20' W 002°25'713.7
2019-Jul-18 03:00N 49°26' W 002°30'2 3.5
2019-Jul-18 02:31N 49°27' W 002°32'0 0.0
2019-Jul-18 02:00N 49°27' W 002°32'4 7.1
2019-Jul-18 01:30N 49°26' W 002°27'713.5
2019-Jul-18 01:00N 49°30' W 002°18'713.1
2019-Jul-18 00:30N 49°34' W 002°10'815.8
2019-Jul-18 00:00N 49°41' W 002°05'1016.5
2019-Jul-17 23:23N 49°50' W 001°57'1016.1
2019-Jul-17 22:47N 49°57' W 001°48'616.0
2019-Jul-17 22:23N 50°03' W 001°42'3714.7
2019-Jul-17 19:52N 50°34' W 001°10'513.2
2019-Jul-17 19:30N 50°38' W 001°06'714.4
2019-Jul-17 19:00N 50°45' W 001°05'4 7.9
2019-Jul-17 18:30N 50°49' W 001°06'0 0.0
2019-Jul-17 18:00N 50°49' W 001°06'0 0.0
2019-Jul-17 17:30N 50°49' W 001°06'0 0.0
2019-Jul-17 17:00N 50°49' W 001°06'0 0.0
2019-Jul-17 16:30N 50°49' W 001°06'0 0.0
2019-Jul-17 16:00N 50°49' W 001°06'0 0.0
2019-Jul-17 15:30N 50°49' W 001°06'2 3.4
2019-Jul-17 15:00N 50°47' W 001°06'713.9
2019-Jul-17 14:31N 50°40' W 001°04'714.1
2019-Jul-17 14:00N 50°35' W 001°10'714.3
2019-Jul-17 13:30N 50°29' W 001°17'815.2
2019-Jul-17 13:00N 50°23' W 001°24'816.8
2019-Jul-17 12:30N 50°15' W 001°30'714.8
2019-Jul-17 12:00N 50°09' W 001°35'714.7
2019-Jul-17 11:30N 50°03' W 001°42'815.4
2019-Jul-17 11:00N 49°57' W 001°49'815.6
2019-Jul-17 10:30N 49°50' W 001°56'816.1
2019-Jul-17 10:00N 49°43' W 002°03'816.2
2019-Jul-17 09:30N 49°36' W 002°08'815.8
2019-Jul-17 09:00N 49°29' W 002°13'917.7
2019-Jul-17 08:30N 49°21' W 002°18'815.9
2019-Jul-17 08:00N 49°13' W 002°21'815.6
2019-Jul-17 07:30N 49°10' W 002°10'2 4.1
2019-Jul-17 07:01N 49°11' W 002°07'0 0.0
2019-Jul-17 06:30N 49°11' W 002°07'0 0.0
2019-Jul-17 05:56N 49°11' W 002°07'0 0.0
2019-Jul-17 05:29N 49°11' W 002°07'0 0.0
2019-Jul-17 05:00N 49°11' W 002°07'611.4
2019-Jul-17 04:30N 49°10' W 002°16'917.2
2019-Jul-17 04:00N 49°17' W 002°24'918.5
2019-Jul-17 03:30N 49°25' W 002°29'3 5.5
2019-Jul-17 03:00N 49°27' W 002°32'0 0.0
2019-Jul-17 02:22N 49°27' W 002°32'1 3.4
2019-Jul-17 02:01N 49°27' W 002°30'713.0
2019-Jul-17 01:31N 49°29' W 002°20'916.8
2019-Jul-17 01:00N 49°34' W 002°09'713.9
2019-Jul-17 00:30N 49°40' W 002°05'816.7
2019-Jul-17 00:01N 49°47' W 001°59'816.6
2019-Jul-16 23:31N 49°54' W 001°51'816.0
2019-Jul-16 23:00N 49°60' W 001°42'915.7
2019-Jul-16 22:27N 50°08' W 001°37'815.7
2019-Jul-16 21:58N 50°14' W 001°30'715.7
2019-Jul-16 21:31N 50°20' W 001°24'815.5
2019-Jul-16 21:01N 50°26' W 001°17'815.3
2019-Jul-16 20:30N 50°33' W 001°11'815.2
2019-Jul-16 20:00N 50°39' W 001°05'714.4
2019-Jul-16 19:30N 50°46' W 001°06'2 4.6
2019-Jul-16 19:00N 50°49' W 001°06'0 0.0
2019-Jul-16 18:30N 50°49' W 001°06'0 0.0
2019-Jul-16 18:00N 50°49' W 001°06'0 0.0
2019-Jul-16 17:30N 50°49' W 001°06'0 0.0
2019-Jul-16 17:00N 50°49' W 001°06'0 0.0
2019-Jul-16 16:30N 50°49' W 001°06'0 0.0
2019-Jul-16 16:00N 50°49' W 001°06'0 0.0
2019-Jul-16 15:30N 50°49' W 001°06'2 4.4
2019-Jul-16 15:00N 50°47' W 001°06'613.0
2019-Jul-16 14:31N 50°40' W 001°04'815.5
2019-Jul-16 14:00N 50°34' W 001°11'815.3
2019-Jul-16 13:27N 50°27' W 001°18'914.6
2019-Jul-16 12:53N 50°20' W 001°27'713.9
2019-Jul-16 12:22N 50°14' W 001°33'814.2
2019-Jul-16 11:47N 50°07' W 001°40'1214.5
2019-Jul-16 10:59N 49°58' W 001°50'914.5
2019-Jul-16 10:20N 49°50' W 001°58'515.4
2019-Jul-16 10:00N 49°46' W 002°02'917.4
2019-Jul-16 09:30N 49°38' W 002°08'916.7
2019-Jul-16 08:59N 49°30' W 002°12'918.0
2019-Jul-16 08:30N 49°22' W 002°17'816.5
2019-Jul-16 08:00N 49°14' W 002°21'916.6
2019-Jul-16 07:27N 49°10' W 002°08'1 0.4
2019-Jul-16 04:57N 49°11' W 002°07'613.4
2019-Jul-16 04:29N 49°10' W 002°16'918.0
2019-Jul-16 04:00N 49°17' W 002°24'1117.6
2019-Jul-16 03:22N 49°27' W 002°31'1 0.4
2019-Jul-16 02:04N 49°27' W 002°32'0 0.6
2019-Jul-16 02:00N 49°27' W 002°32'510.4
2019-Jul-16 01:30N 49°27' W 002°24'816.3
2019-Jul-16 01:00N 49°32' W 002°13'815.5
2019-Jul-16 00:31N 49°38' W 002°07'815.1
2019-Jul-16 00:00N 49°45' W 002°01'1616.5
2019-Jul-15 23:01N 49°58' W 001°45'016.1
2019-Jul-15 23:00N 49°58' W 001°45'815.9
2019-Jul-15 22:30N 50°05' W 001°40'1314.4
2019-Jul-15 21:34N 50°16' W 001°29'116.1
2019-Jul-15 21:30N 50°17' W 001°28'1916.0
2019-Jul-15 20:18N 50°33' W 001°11'515.4
2019-Jul-15 20:00N 50°37' W 001°07'714.5
2019-Jul-15 19:30N 50°44' W 001°04'5 9.7
2019-Jul-15 19:01N 50°49' W 001°06'0 0.1
2019-Jul-15 18:30N 50°49' W 001°06'0 0.0
2019-Jul-15 18:00N 50°49' W 001°06'0 0.0
2019-Jul-15 17:30N 50°49' W 001°06'0 0.0
2019-Jul-15 17:00N 50°49' W 001°06'0 0.0
2019-Jul-15 16:30N 50°49' W 001°06'0 0.0
2019-Jul-15 16:00N 50°49' W 001°06'0 0.0
2019-Jul-15 15:30N 50°49' W 001°06'2 3.7
2019-Jul-15 15:00N 50°47' W 001°06'713.8
2019-Jul-15 14:30N 50°40' W 001°04'815.4
2019-Jul-15 14:00N 50°34' W 001°10'4114.6
2019-Jul-15 11:12N 49°60' W 001°47'314.4
2019-Jul-15 11:01N 49°58' W 001°49'814.0
2019-Jul-15 10:25N 49°51' W 001°57'714.3
2019-Jul-15 09:57N 49°45' W 002°02'815.1
2019-Jul-15 09:25N 49°38' W 002°07'715.4
2019-Jul-15 09:00N 49°32' W 002°10'816.5
2019-Jul-15 08:30N 49°24' W 002°15'816.7
2019-Jul-15 08:00N 49°17' W 002°21'1115.8
2019-Jul-15 07:19N 49°10' W 002°07'1 0.3
2019-Jul-15 04:55N 49°11' W 002°07'714.3
2019-Jul-15 04:25N 49°10' W 002°18'611.0
2019-Jul-15 03:51N 49°16' W 002°23'3 9.9
2019-Jul-15 03:30N 49°19' W 002°25'510.8
2019-Jul-15 03:00N 49°24' W 002°28'4 8.8
2019-Jul-15 02:30N 49°27' W 002°32'0 0.0
2019-Jul-15 02:00N 49°27' W 002°32'4 8.0
2019-Jul-15 01:30N 49°26' W 002°26'918.3
2019-Jul-15 01:00N 49°32' W 002°15'913.4
2019-Jul-15 00:22N 49°38' W 002°06'615.4
2019-Jul-15 00:00N 49°44' W 002°03'913.3
2019-Jul-14 23:18N 49°52' W 001°56'1014.7
2019-Jul-14 22:37N 50°00' W 001°47'5323.6
2019-Jul-14 20:21N 50°47' W 001°06'1510.2
2019-Jul-14 18:52N 50°32' W 001°12'515.0
2019-Jul-14 18:30N 50°37' W 001°08'714.9
2019-Jul-14 18:01N 50°43' W 001°04'510.7
2019-Jul-14 17:31N 50°49' W 001°06'0 0.2
2019-Jul-14 17:00N 50°49' W 001°06'0 0.0
2019-Jul-14 16:30N 50°49' W 001°06'0 0.0
2019-Jul-14 16:00N 50°49' W 001°06'0 0.0
2019-Jul-14 15:30N 50°49' W 001°06'0 0.0
2019-Jul-14 15:00N 50°49' W 001°06'0 0.0
2019-Jul-14 14:30N 50°49' W 001°06'0 0.0
2019-Jul-14 14:00N 50°49' W 001°06'0 0.0
2019-Jul-14 13:30N 50°49' W 001°06'0 0.0
2019-Jul-14 13:00N 50°49' W 001°06'0 0.0
2019-Jul-14 12:30N 50°49' W 001°06'0 0.0
2019-Jul-14 12:00N 50°49' W 001°06'0 0.0
2019-Jul-14 11:30N 50°49' W 001°06'0 0.0
2019-Jul-14 11:00N 50°49' W 001°06'0 0.0
2019-Jul-14 10:30N 50°49' W 001°06'0 0.0
2019-Jul-14 10:00N 50°49' W 001°06'0 0.0
2019-Jul-14 09:30N 50°49' W 001°06'0 0.0
2019-Jul-14 09:01N 50°49' W 001°06'0 0.0
2019-Jul-14 08:30N 50°49' W 001°06'0 0.0
2019-Jul-14 08:00N 50°49' W 001°06'0 0.0
2019-Jul-14 07:30N 50°49' W 001°06'0 0.0
2019-Jul-14 07:00N 50°49' W 001°06'0 0.0
2019-Jul-14 06:31N 50°49' W 001°06'0 0.4
2019-Jul-14 06:00N 50°49' W 001°06'5 9.2
2019-Jul-14 05:30N 50°44' W 001°04'815.9
2019-Jul-14 05:00N 50°37' W 001°07'917.0
2019-Jul-14 04:30N 50°29' W 001°13'3014.7
2019-Jul-14 02:30N 50°05' W 001°41'4415.3
2019-Jul-13 23:36N 49°29' W 002°20'315.5
2019-Jul-13 23:24N 49°27' W 002°24'410.7
2019-Jul-13 23:00N 49°27' W 002°31'1 0.6
2019-Jul-13 21:51N 49°27' W 002°32'3 7.7
2019-Jul-13 21:31N 49°25' W 002°29'5 9.9
2019-Jul-13 21:00N 49°20' W 002°28'3 6.2
2019-Jul-13 20:30N 49°17' W 002°28'0 1.0
2019-Jul-13 20:00N 49°17' W 002°27'3 5.1
2019-Jul-13 19:30N 49°15' W 002°27'2 5.0
2019-Jul-13 19:00N 49°12' W 002°27'3 5.2
2019-Jul-13 18:30N 49°10' W 002°26'3 5.4
2019-Jul-13 18:00N 49°07' W 002°25'3 5.5
2019-Jul-13 17:30N 49°04' W 002°24'5 6.5
2019-Jul-13 16:47N 48°60' W 002°22'3 8.2
2019-Jul-13 16:26N 48°57' W 002°21'23 4.3
2019-Jul-13 11:11N 48°38' W 002°02'0 0.0
2019-Jul-13 11:00N 48°38' W 002°02'0 0.0
2019-Jul-13 10:30N 48°38' W 002°02'5 8.0
2019-Jul-13 09:50N 48°43' W 002°06'910.3
2019-Jul-13 09:00N 48°51' W 002°01'913.2
2019-Jul-13 08:20N 48°59' W 001°55'514.0
2019-Jul-13 08:00N 49°03' W 001°58'816.7
2019-Jul-13 07:30N 49°09' W 002°07'1 2.8
2019-Jul-13 06:58N 49°11' W 002°07'0 0.0
2019-Jul-13 06:24N 49°11' W 002°07'0 0.0
2019-Jul-13 05:59N 49°11' W 002°07'0 0.0
2019-Jul-13 05:10N 49°11' W 002°07'1 5.4
2019-Jul-13 05:00N 49°10' W 002°08'815.1
2019-Jul-13 04:30N 49°12' W 002°19'816.7
2019-Jul-13 04:00N 49°19' W 002°25'917.1
2019-Jul-13 03:31N 49°27' W 002°30'1 2.7
2019-Jul-13 03:00N 49°27' W 002°32'0 0.0
2019-Jul-13 02:30N 49°27' W 002°32'0 0.1
2019-Jul-13 02:01N 49°27' W 002°32'4 8.6
2019-Jul-13 01:30N 49°27' W 002°25'816.6
2019-Jul-13 01:00N 49°32' W 002°15'611.8
2019-Jul-13 00:31N 49°36' W 002°08'714.4
2019-Jul-13 00:00N 49°42' W 002°04'1815.2
2019-Jul-12 22:48N 49°59' W 001°51'815.8
2019-Jul-12 22:17N 50°05' W 001°42'3114.9
2019-Jul-12 20:14N 50°30' W 001°15'415.8
2019-Jul-12 20:00N 50°33' W 001°12'817.2
2019-Jul-12 19:31N 50°40' W 001°04'714.9
2019-Jul-12 19:00N 50°47' W 001°06'2 3.3
2019-Jul-12 18:30N 50°49' W 001°06'0 0.0
2019-Jul-12 18:00N 50°49' W 001°06'0 0.0
2019-Jul-12 17:30N 50°49' W 001°06'0 0.0
2019-Jul-12 17:00N 50°49' W 001°06'0 0.0
2019-Jul-12 16:30N 50°49' W 001°06'0 0.0
2019-Jul-12 16:00N 50°49' W 001°06'0 0.0
2019-Jul-12 15:30N 50°49' W 001°06'2 3.6
2019-Jul-12 15:00N 50°47' W 001°06'714.1
2019-Jul-12 14:31N 50°40' W 001°04'713.6
2019-Jul-12 14:00N 50°34' W 001°09'  
Track history (hours):
 
Tides and Currents Weather Stations Pressure Air Temp Water Temp Dewpoint Dewpoint Depression Visibility Wind Speed Wind Dir Waves Ship Positions

Commodore Goodwill

Operator: Condor Marine Services

Last reported at 2019-Jul-22 13:30 UTC. Time now 2019-Jul-22 13:47 UTC.
Position N 50°29' W 001°15'.

Length 126 m; draft 4.6 m.

Type: Ship (hazmat cat C). MMSI: 309536000.

Date/timePositionNaut miles runAvg speedWind from/ knotsBaromVisibWave heightAir tempDewpointWater temp
2019-Jul-22 13:30N 50°29' W 001°15'815.4
2019-Jul-22 13:00N 50°23' W 001°22'815.8
2019-Jul-22 12:30N 50°16' W 001°28'816.0
2019-Jul-22 12:00N 50°09' W 001°35'815.8
2019-Jul-22 11:30N 50°03' W 001°42'816.0
2019-Jul-22 11:01N 49°56' W 001°48'917.2
2019-Jul-22 10:30N 49°49' W 001°56'1118.8
2019-Jul-22 09:57N 49°40' W 002°04'818.6
2019-Jul-22 09:30N 49°33' W 002°09'816.1
2019-Jul-22 09:00N 49°25' W 002°15'816.1
2019-Jul-22 08:30N 49°18' W 002°20'714.4
2019-Jul-22 08:00N 49°11' W 002°19'612.0
2019-Jul-22 07:29N 49°10' W 002°10'2 1.1
2019-Jul-22 05:40N 49°11' W 002°07'1 5.4
2019-Jul-22 05:27N 49°10' W 002°08'614.4
2019-Jul-22 05:00N 49°10' W 002°18'8 9.7
2019-Jul-22 04:12N 49°17' W 002°24'1 7.4
2019-Jul-22 04:00N 49°18' W 002°25'4 7.2
2019-Jul-22 03:30N 49°22' W 002°27'4 7.2
2019-Jul-22 03:00N 49°25' W 002°29'3 6.0
2019-Jul-22 02:30N 49°27' W 002°32'0 0.0
2019-Jul-22 02:00N 49°27' W 002°32'4 7.4
2019-Jul-22 01:31N 49°26' W 002°26'815.4
2019-Jul-22 01:00N 49°31' W 002°17'714.5
2019-Jul-22 00:30N 49°36' W 002°08'1111.7
2019-Jul-21 23:32N 49°46' W 002°01'010.6
2019-Jul-21 23:30N 49°46' W 002°01'5 9.7
2019-Jul-21 23:00N 49°50' W 001°56'510.7
2019-Jul-21 22:30N 49°55' W 001°52'611.2
2019-Jul-21 22:00N 49°59' W 001°47'611.4
2019-Jul-21 21:30N 50°04' W 001°42'612.3
2019-Jul-21 20:59N 50°09' W 001°37'612.9
2019-Jul-21 20:30N 50°15' W 001°32'713.2
2019-Jul-21 20:00N 50°20' W 001°26'713.7
2019-Jul-21 19:30N 50°26' W 001°19'713.2
2019-Jul-21 19:00N 50°31' W 001°13'510.5
2019-Jul-21 18:30N 50°35' W 001°08'612.8
2019-Jul-21 18:01N 50°41' W 001°03'714.8
2019-Jul-21 17:30N 50°48' W 001°07'1 2.6
2019-Jul-21 17:00N 50°49' W 001°06'0 0.0
2019-Jul-21 16:30N 50°49' W 001°06'0 0.0
2019-Jul-21 16:00N 50°49' W 001°06'0 0.0
2019-Jul-21 15:30N 50°49' W 001°06'0 0.0
2019-Jul-21 15:00N 50°49' W 001°06'0 0.0
2019-Jul-21 14:30N 50°49' W 001°06'0 0.0
2019-Jul-21 14:00N 50°49' W 001°06'0 0.0
2019-Jul-21 13:30N 50°49' W 001°06'0 0.0
2019-Jul-21 13:00N 50°49' W 001°06'0 0.0
2019-Jul-21 12:30N 50°49' W 001°06'0 0.0
2019-Jul-21 12:00N 50°49' W 001°06'0 0.0
2019-Jul-21 11:30N 50°49' W 001°06'0 0.0
2019-Jul-21 11:00N 50°49' W 001°06'0 0.0
2019-Jul-21 10:30N 50°49' W 001°06'0 0.0
2019-Jul-21 10:00N 50°49' W 001°06'0 0.0
2019-Jul-21 09:30N 50°49' W 001°06'1 1.8
2019-Jul-21 09:00N 50°49' W 001°07'2 3.9
2019-Jul-21 08:30N 50°47' W 001°06'611.5
2019-Jul-21 08:00N 50°41' W 001°02'2 4.5
2019-Jul-21 07:31N 50°44' W 001°03'2 3.5
2019-Jul-21 07:00N 50°42' W 001°03'4 8.1
2019-Jul-21 06:30N 50°46' W 001°05'3 6.3
2019-Jul-21 06:00N 50°49' W 001°06'0 0.0
2019-Jul-21 05:30N 50°49' W 001°06'0 0.0
2019-Jul-21 05:00N 50°49' W 001°06'0 0.0
2019-Jul-21 04:30N 50°49' W 001°06'0 0.0
2019-Jul-21 04:00N 50°49' W 001°06'0 0.0
2019-Jul-21 03:30N 50°49' W 001°06'0 0.0
2019-Jul-21 03:00N 50°49' W 001°06'0 0.0
2019-Jul-21 02:30N 50°49' W 001°06'0 0.0
2019-Jul-21 02:00N 50°49' W 001°06'0 0.0
2019-Jul-21 01:30N 50°49' W 001°06'0 0.0
2019-Jul-21 01:00N 50°49' W 001°06'0 0.0
2019-Jul-21 00:30N 50°49' W 001°06'0 0.0
2019-Jul-21 00:00N 50°49' W 001°06'0 0.0
2019-Jul-20 23:30N 50°49' W 001°06'0 0.0
2019-Jul-20 23:00N 50°49' W 001°06'0 0.0
2019-Jul-20 22:30N 50°49' W 001°06'0 0.0
2019-Jul-20 22:00N 50°49' W 001°06'0 0.0
2019-Jul-20 21:30N 50°49' W 001°06'0 0.0
2019-Jul-20 21:00N 50°49' W 001°06'0 0.0
2019-Jul-20 20:30N 50°49' W 001°06'0 0.0
2019-Jul-20 20:00N 50°49' W 001°06'0 0.0
2019-Jul-20 19:30N 50°49' W 001°06'0 0.0
2019-Jul-20 19:00N 50°49' W 001°06'0 0.0
2019-Jul-20 18:30N 50°49' W 001°06'0 0.0
2019-Jul-20 18:00N 50°49' W 001°06'0 0.0
2019-Jul-20 17:30N 50°49' W 001°06'0 0.0
2019-Jul-20 17:00N 50°49' W 001°06'0 0.0
2019-Jul-20 16:30N 50°49' W 001°06'0 0.0
2019-Jul-20 16:00N 50°49' W 001°06'0 0.0
2019-Jul-20 15:30N 50°49' W 001°06'2 3.2
2019-Jul-20 15:01N 50°47' W 001°07'714.6
2019-Jul-20 14:30N 50°40' W 001°04'611.6
2019-Jul-20 14:00N 50°35' W 001°09'611.0
2019-Jul-20 13:30N 50°31' W 001°14'612.3
2019-Jul-20 13:00N 50°25' W 001°19'712.6
2019-Jul-20 12:25N 50°19' W 001°24'513.0
2019-Jul-20 12:00N 50°14' W 001°27'711.7
2019-Jul-20 11:25N 50°08' W 001°33'512.0
2019-Jul-20 11:00N 50°05' W 001°38'714.7
2019-Jul-20 10:30N 49°59' W 001°46'917.5
2019-Jul-20 10:00N 49°52' W 001°54'1118.9
2019-Jul-20 09:25N 49°43' W 002°04'918.4
2019-Jul-20 08:57N 49°35' W 002°09'817.1
2019-Jul-20 08:30N 49°28' W 002°13'816.7
2019-Jul-20 08:00N 49°20' W 002°18'1015.0
2019-Jul-20 07:22N 49°10' W 002°18'716.4
2019-Jul-20 06:57N 49°10' W 002°08'0 0.1
2019-Jul-20 04:45N 49°10' W 002°08'619.6
2019-Jul-20 04:26N 49°10' W 002°17'717.2
2019-Jul-20 04:00N 49°16' W 002°23'816.9
2019-Jul-20 03:30N 49°24' W 002°28'4 7.5
2019-Jul-20 03:00N 49°27' W 002°32'0 0.0
2019-Jul-20 02:30N 49°27' W 002°32'3 5.2
2019-Jul-20 02:01N 49°25' W 002°29'918.7
2019-Jul-20 01:30N 49°31' W 002°17'917.6
2019-Jul-20 00:59N 49°38' W 002°08'918.3
2019-Jul-20 00:28N 49°46' W 002°01'716.2
2019-Jul-20 00:00N 49°52' W 001°54'815.6
2019-Jul-19 23:31N 49°58' W 001°46'815.4
2019-Jul-19 23:00N 50°04' W 001°40'714.9
2019-Jul-19 22:30N 50°10' W 001°32'714.6
2019-Jul-19 22:00N 50°15' W 001°24'815.4
2019-Jul-19 21:31N 50°22' W 001°19'815.3
2019-Jul-19 21:01N 50°29' W 001°14'714.7
2019-Jul-19 20:30N 50°36' W 001°09'714.9
2019-Jul-19 20:01N 50°42' W 001°03'714.1
2019-Jul-19 19:30N 50°48' W 001°07'1 1.8
2019-Jul-19 19:00N 50°49' W 001°06'0 0.0
2019-Jul-19 18:30N 50°49' W 001°06'0 0.0
2019-Jul-19 18:00N 50°49' W 001°06'0 0.0
2019-Jul-19 17:30N 50°49' W 001°06'0 0.0
2019-Jul-19 17:00N 50°49' W 001°06'0 0.0
2019-Jul-19 16:30N 50°49' W 001°06'1 1.4
2019-Jul-19 16:00N 50°49' W 001°07'612.4
2019-Jul-19 15:30N 50°43' W 001°03'815.0
2019-Jul-19 15:00N 50°36' W 001°08'715.0
2019-Jul-19 14:30N 50°30' W 001°15'2616.7
2019-Jul-19 12:56N 50°08' W 001°37'817.7
2019-Jul-19 12:30N 50°01' W 001°44'918.3
2019-Jul-19 12:00N 49°54' W 001°52'1019.1
2019-Jul-19 11:30N 49°46' W 001°60'1018.0
2019-Jul-19 10:57N 49°39' W 002°12'818.6
2019-Jul-19 10:30N 49°34' W 002°22'918.3
2019-Jul-19 10:00N 49°27' W 002°31'0 0.4
2019-Jul-19 09:30N 49°27' W 002°32'0 0.0
2019-Jul-19 09:01N 49°27' W 002°32'0 0.0
2019-Jul-19 08:30N 49°27' W 002°32'0 0.0
2019-Jul-19 08:00N 49°27' W 002°32'510.4
2019-Jul-19 07:30N 49°23' W 002°27'917.5
2019-Jul-19 07:00N 49°15' W 002°22'11 4.0
2019-Jul-19 04:15N 49°11' W 002°07'1 3.6
2019-Jul-19 03:58N 49°10' W 002°08'613.9
2019-Jul-19 03:30N 49°10' W 002°17'714.8
2019-Jul-19 03:00N 49°18' W 002°20'612.9
2019-Jul-19 02:30N 49°23' W 002°16'612.9
2019-Jul-19 02:00N 49°29' W 002°12'713.7
2019-Jul-19 01:31N 49°36' W 002°08'1219.0
2019-Jul-19 00:54N 49°46' W 002°01'718.0
2019-Jul-19 00:30N 49°53' W 001°56'917.6
2019-Jul-19 00:00N 50°00' W 001°49'816.6
2019-Jul-18 23:30N 50°07' W 001°41'816.0
2019-Jul-18 23:00N 50°13' W 001°33'815.8
2019-Jul-18 22:30N 50°19' W 001°26'815.5
2019-Jul-18 22:00N 50°26' W 001°19'714.9
2019-Jul-18 21:30N 50°32' W 001°12'714.7
2019-Jul-18 21:00N 50°38' W 001°06'714.1
2019-Jul-18 20:30N 50°45' W 001°05'4 7.6
2019-Jul-18 20:00N 50°49' W 001°06'0 0.0
2019-Jul-18 19:30N 50°49' W 001°06'0 0.0
2019-Jul-18 19:00N 50°49' W 001°06'0 0.0
2019-Jul-18 18:30N 50°49' W 001°06'0 0.0
2019-Jul-18 18:00N 50°49' W 001°06'0 0.2
2019-Jul-18 17:30N 50°49' W 001°06'0 0.0
2019-Jul-18 17:00N 50°49' W 001°06'0 0.0
2019-Jul-18 16:30N 50°49' W 001°06'0 0.1
2019-Jul-18 16:00N 50°49' W 001°06'0 0.9
2019-Jul-18 15:30N 50°49' W 001°07'2 4.1
2019-Jul-18 15:00N 50°47' W 001°06'713.4
2019-Jul-18 14:30N 50°40' W 001°04'714.5
2019-Jul-18 14:01N 50°34' W 001°11'510.2
2019-Jul-18 13:31N 50°30' W 001°15'711.4
2019-Jul-18 12:54N 50°24' W 001°22'512.2
2019-Jul-18 12:31N 50°20' W 001°25'612.8
2019-Jul-18 12:00N 50°14' W 001°29'714.0
2019-Jul-18 11:31N 50°08' W 001°35'815.1
2019-Jul-18 11:01N 50°02' W 001°41'815.8
2019-Jul-18 10:30N 49°55' W 001°48'816.6
2019-Jul-18 10:00N 49°49' W 001°57'1317.6
2019-Jul-18 09:16N 49°38' W 002°07'516.0
2019-Jul-18 08:58N 49°34' W 002°10'919.9
2019-Jul-18 08:31N 49°25' W 002°15'1020.5
2019-Jul-18 08:01N 49°16' W 002°21'10 3.2
2019-Jul-18 04:45N 49°10' W 002°08'619.6
2019-Jul-18 04:26N 49°10' W 002°17'712.7
2019-Jul-18 03:53N 49°16' W 002°23'411.2
2019-Jul-18 03:30N 49°20' W 002°25'713.7
2019-Jul-18 03:00N 49°26' W 002°30'2 3.5
2019-Jul-18 02:31N 49°27' W 002°32'0 0.0
2019-Jul-18 02:00N 49°27' W 002°32'4 7.1
2019-Jul-18 01:30N 49°26' W 002°27'713.5
2019-Jul-18 01:00N 49°30' W 002°18'713.1
2019-Jul-18 00:30N 49°34' W 002°10'815.8
2019-Jul-18 00:00N 49°41' W 002°05'1016.5
2019-Jul-17 23:23N 49°50' W 001°57'1016.1
2019-Jul-17 22:47N 49°57' W 001°48'616.0
2019-Jul-17 22:23N 50°03' W 001°42'3714.7
2019-Jul-17 19:52N 50°34' W 001°10'513.2
2019-Jul-17 19:30N 50°38' W 001°06'714.4
2019-Jul-17 19:00N 50°45' W 001°05'4 7.9
2019-Jul-17 18:30N 50°49' W 001°06'0 0.0
2019-Jul-17 18:00N 50°49' W 001°06'0 0.0
2019-Jul-17 17:30N 50°49' W 001°06'0 0.0
2019-Jul-17 17:00N 50°49' W 001°06'0 0.0
2019-Jul-17 16:30N 50°49' W 001°06'0 0.0
2019-Jul-17 16:00N 50°49' W 001°06'0 0.0
2019-Jul-17 15:30N 50°49' W 001°06'2 3.4
2019-Jul-17 15:00N 50°47' W 001°06'713.9
2019-Jul-17 14:31N 50°40' W 001°04'714.1
2019-Jul-17 14:00N 50°35' W 001°10'714.3
2019-Jul-17 13:30N 50°29' W 001°17'815.2
2019-Jul-17 13:00N 50°23' W 001°24'816.8
2019-Jul-17 12:30N 50°15' W 001°30'714.8
2019-Jul-17 12:00N 50°09' W 001°35'714.7
2019-Jul-17 11:30N 50°03' W 001°42'815.4
2019-Jul-17 11:00N 49°57' W 001°49'815.6
2019-Jul-17 10:30N 49°50' W 001°56'816.1
2019-Jul-17 10:00N 49°43' W 002°03'816.2
2019-Jul-17 09:30N 49°36' W 002°08'815.8
2019-Jul-17 09:00N 49°29' W 002°13'917.7
2019-Jul-17 08:30N 49°21' W 002°18'815.9
2019-Jul-17 08:00N 49°13' W 002°21'815.6
2019-Jul-17 07:30N 49°10' W 002°10'2 4.1
2019-Jul-17 07:01N 49°11' W 002°07'0 0.0
2019-Jul-17 06:30N 49°11' W 002°07'0 0.0
2019-Jul-17 05:56N 49°11' W 002°07'0 0.0
2019-Jul-17 05:29N 49°11' W 002°07'0 0.0
2019-Jul-17 05:00N 49°11' W 002°07'611.4
2019-Jul-17 04:30N 49°10' W 002°16'917.2
2019-Jul-17 04:00N 49°17' W 002°24'918.5
2019-Jul-17 03:30N 49°25' W 002°29'3 5.5
2019-Jul-17 03:00N 49°27' W 002°32'0 0.0
2019-Jul-17 02:22N 49°27' W 002°32'1 3.4
2019-Jul-17 02:01N 49°27' W 002°30'713.0
2019-Jul-17 01:31N 49°29' W 002°20'916.8
2019-Jul-17 01:00N 49°34' W 002°09'713.9
2019-Jul-17 00:30N 49°40' W 002°05'816.7
2019-Jul-17 00:01N 49°47' W 001°59'816.6
2019-Jul-16 23:31N 49°54' W 001°51'816.0
2019-Jul-16 23:00N 49°60' W 001°42'915.7
2019-Jul-16 22:27N 50°08' W 001°37'815.7
2019-Jul-16 21:58N 50°14' W 001°30'715.7
2019-Jul-16 21:31N 50°20' W 001°24'815.5
2019-Jul-16 21:01N 50°26' W 001°17'815.3
2019-Jul-16 20:30N 50°33' W 001°11'815.2
2019-Jul-16 20:00N 50°39' W 001°05'714.4
2019-Jul-16 19:30N 50°46' W 001°06'2 4.6
2019-Jul-16 19:00N 50°49' W 001°06'0 0.0
2019-Jul-16 18:30N 50°49' W 001°06'0 0.0
2019-Jul-16 18:00N 50°49' W 001°06'0 0.0
2019-Jul-16 17:30N 50°49' W 001°06'0 0.0
2019-Jul-16 17:00N 50°49' W 001°06'0 0.0
2019-Jul-16 16:30N 50°49' W 001°06'0 0.0
2019-Jul-16 16:00N 50°49' W 001°06'0 0.0
2019-Jul-16 15:30N 50°49' W 001°06'2 4.4
2019-Jul-16 15:00N 50°47' W 001°06'613.0
2019-Jul-16 14:31N 50°40' W 001°04'815.5
2019-Jul-16 14:00N 50°34' W 001°11'815.3
2019-Jul-16 13:27N 50°27' W 001°18'914.6
2019-Jul-16 12:53N 50°20' W 001°27'713.9
2019-Jul-16 12:22N 50°14' W 001°33'814.2
2019-Jul-16 11:47N 50°07' W 001°40'1214.5
2019-Jul-16 10:59N 49°58' W 001°50'914.5
2019-Jul-16 10:20N 49°50' W 001°58'515.4
2019-Jul-16 10:00N 49°46' W 002°02'917.4
2019-Jul-16 09:30N 49°38' W 002°08'916.7
2019-Jul-16 08:59N 49°30' W 002°12'918.0
2019-Jul-16 08:30N 49°22' W 002°17'816.5
2019-Jul-16 08:00N 49°14' W 002°21'916.6
2019-Jul-16 07:27N 49°10' W 002°08'1 0.4
2019-Jul-16 04:57N 49°11' W 002°07'613.4
2019-Jul-16 04:29N 49°10' W 002°16'918.0
2019-Jul-16 04:00N 49°17' W 002°24'1117.6
2019-Jul-16 03:22N 49°27' W 002°31'1 0.4
2019-Jul-16 02:04N 49°27' W 002°32'0 0.6
2019-Jul-16 02:00N 49°27' W 002°32'510.4
2019-Jul-16 01:30N 49°27' W 002°24'816.3
2019-Jul-16 01:00N 49°32' W 002°13'815.5
2019-Jul-16 00:31N 49°38' W 002°07'815.1
2019-Jul-16 00:00N 49°45' W 002°01'1616.5
2019-Jul-15 23:01N 49°58' W 001°45'016.1
2019-Jul-15 23:00N 49°58' W 001°45'815.9
2019-Jul-15 22:30N 50°05' W 001°40'1314.4
2019-Jul-15 21:34N 50°16' W 001°29'116.1
2019-Jul-15 21:30N 50°17' W 001°28'1916.0
2019-Jul-15 20:18N 50°33' W 001°11'515.4
2019-Jul-15 20:00N 50°37' W 001°07'714.5
2019-Jul-15 19:30N 50°44' W 001°04'5 9.7
2019-Jul-15 19:01N 50°49' W 001°06'0 0.1
2019-Jul-15 18:30N 50°49' W 001°06'0 0.0
2019-Jul-15 18:00N 50°49' W 001°06'0 0.0
2019-Jul-15 17:30N 50°49' W 001°06'0 0.0
2019-Jul-15 17:00N 50°49' W 001°06'0 0.0
2019-Jul-15 16:30N 50°49' W 001°06'0 0.0
2019-Jul-15 16:00N 50°49' W 001°06'0 0.0
2019-Jul-15 15:30N 50°49' W 001°06'2 3.7
2019-Jul-15 15:00N 50°47' W 001°06'713.8
2019-Jul-15 14:30N 50°40' W 001°04'815.4
2019-Jul-15 14:00N 50°34' W 001°10'4114.6
2019-Jul-15 11:12N 49°60' W 001°47'314.4
2019-Jul-15 11:01N 49°58' W 001°49'814.0
2019-Jul-15 10:25N 49°51' W 001°57'714.3
2019-Jul-15 09:57N 49°45' W 002°02'815.1
2019-Jul-15 09:25N 49°38' W 002°07'715.4
2019-Jul-15 09:00N 49°32' W 002°10'816.5
2019-Jul-15 08:30N 49°24' W 002°15'816.7
2019-Jul-15 08:00N 49°17' W 002°21'1115.8
2019-Jul-15 07:19N 49°10' W 002°07'1 0.3
2019-Jul-15 04:55N 49°11' W 002°07'714.3
2019-Jul-15 04:25N 49°10' W 002°18'611.0
2019-Jul-15 03:51N 49°16' W 002°23'3 9.9
2019-Jul-15 03:30N 49°19' W 002°25'510.8
2019-Jul-15 03:00N 49°24' W 002°28'4 8.8
2019-Jul-15 02:30N 49°27' W 002°32'0 0.0
2019-Jul-15 02:00N 49°27' W 002°32'4 8.0
2019-Jul-15 01:30N 49°26' W 002°26'918.3
2019-Jul-15 01:00N 49°32' W 002°15'913.4
2019-Jul-15 00:22N 49°38' W 002°06'615.4
2019-Jul-15 00:00N 49°44' W 002°03'913.3
2019-Jul-14 23:18N 49°52' W 001°56'1014.7
2019-Jul-14 22:37N 50°00' W 001°47'5323.6
2019-Jul-14 20:21N 50°47' W 001°06'1510.2
2019-Jul-14 18:52N 50°32' W 001°12'515.0
2019-Jul-14 18:30N 50°37' W 001°08'714.9
2019-Jul-14 18:01N 50°43' W 001°04'510.7
2019-Jul-14 17:31N 50°49' W 001°06'0 0.2
2019-Jul-14 17:00N 50°49' W 001°06'0 0.0
2019-Jul-14 16:30N 50°49' W 001°06'0 0.0
2019-Jul-14 16:00N 50°49' W 001°06'0 0.0
2019-Jul-14 15:30N 50°49' W 001°06'0 0.0
2019-Jul-14 15:00N 50°49' W 001°06'0 0.0
2019-Jul-14 14:30N 50°49' W 001°06'0 0.0
2019-Jul-14 14:00N 50°49' W 001°06'0 0.0
2019-Jul-14 13:30N 50°49' W 001°06'0 0.0
2019-Jul-14 13:00N 50°49' W 001°06'0 0.0
2019-Jul-14 12:30N 50°49' W 001°06'0 0.0
2019-Jul-14 12:00N 50°49' W 001°06'0 0.0
2019-Jul-14 11:30N 50°49' W 001°06'0 0.0
2019-Jul-14 11:00N 50°49' W 001°06'0 0.0
2019-Jul-14 10:30N 50°49' W 001°06'0 0.0
2019-Jul-14 10:00N 50°49' W 001°06'0 0.0
2019-Jul-14 09:30N 50°49' W 001°06'0 0.0
2019-Jul-14 09:01N 50°49' W 001°06'0 0.0
2019-Jul-14 08:30N 50°49' W 001°06'0 0.0
2019-Jul-14 08:00N 50°49' W 001°06'0 0.0
2019-Jul-14 07:30N 50°49' W 001°06'0 0.0
2019-Jul-14 07:00N 50°49' W 001°06'0 0.0
2019-Jul-14 06:31N 50°49' W 001°06'0 0.4
2019-Jul-14 06:00N 50°49' W 001°06'5 9.2
2019-Jul-14 05:30N 50°44' W 001°04'815.9
2019-Jul-14 05:00N 50°37' W 001°07'917.0
2019-Jul-14 04:30N 50°29' W 001°13'3014.7
2019-Jul-14 02:30N 50°05' W 001°41'4415.3
2019-Jul-13 23:36N 49°29' W 002°20'315.5
2019-Jul-13 23:24N 49°27' W 002°24'410.7
2019-Jul-13 23:00N 49°27' W 002°31'1 0.6
2019-Jul-13 21:51N 49°27' W 002°32'3 7.7
2019-Jul-13 21:31N 49°25' W 002°29'5 9.9
2019-Jul-13 21:00N 49°20' W 002°28'3 6.2
2019-Jul-13 20:30N 49°17' W 002°28'0 1.0
2019-Jul-13 20:00N 49°17' W 002°27'3 5.1
2019-Jul-13 19:30N 49°15' W 002°27'2 5.0
2019-Jul-13 19:00N 49°12' W 002°27'3 5.2
2019-Jul-13 18:30N 49°10' W 002°26'3 5.4
2019-Jul-13 18:00N 49°07' W 002°25'3 5.5
2019-Jul-13 17:30N 49°04' W 002°24'5 6.5
2019-Jul-13 16:47N 48°60' W 002°22'3 8.2
2019-Jul-13 16:26N 48°57' W 002°21'23 4.3
2019-Jul-13 11:11N 48°38' W 002°02'0 0.0
2019-Jul-13 11:00N 48°38' W 002°02'0 0.0
2019-Jul-13 10:30N 48°38' W 002°02'5 8.0
2019-Jul-13 09:50N 48°43' W 002°06'910.3
2019-Jul-13 09:00N 48°51' W 002°01'913.2
2019-Jul-13 08:20N 48°59' W 001°55'514.0
2019-Jul-13 08:00N 49°03' W 001°58'816.7
2019-Jul-13 07:30N 49°09' W 002°07'1 2.8
2019-Jul-13 06:58N 49°11' W 002°07'0 0.0
2019-Jul-13 06:24N 49°11' W 002°07'0 0.0
2019-Jul-13 05:59N 49°11' W 002°07'0 0.0
2019-Jul-13 05:10N 49°11' W 002°07'1 5.4
2019-Jul-13 05:00N 49°10' W 002°08'815.1
2019-Jul-13 04:30N 49°12' W 002°19'816.7
2019-Jul-13 04:00N 49°19' W 002°25'917.1
2019-Jul-13 03:31N 49°27' W 002°30'1 2.7
2019-Jul-13 03:00N 49°27' W 002°32'0 0.0
2019-Jul-13 02:30N 49°27' W 002°32'0 0.1
2019-Jul-13 02:01N 49°27' W 002°32'4 8.6
2019-Jul-13 01:30N 49°27' W 002°25'816.6
2019-Jul-13 01:00N 49°32' W 002°15'611.8
2019-Jul-13 00:31N 49°36' W 002°08'714.4
2019-Jul-13 00:00N 49°42' W 002°04'1815.2
2019-Jul-12 22:48N 49°59' W 001°51'815.8
2019-Jul-12 22:17N 50°05' W 001°42'3114.9
2019-Jul-12 20:14N 50°30' W 001°15'415.8
2019-Jul-12 20:00N 50°33' W 001°12'817.2
2019-Jul-12 19:31N 50°40' W 001°04'714.9
2019-Jul-12 19:00N 50°47' W 001°06'2 3.3
2019-Jul-12 18:30N 50°49' W 001°06'0 0.0
2019-Jul-12 18:00N 50°49' W 001°06'0 0.0
2019-Jul-12 17:30N 50°49' W 001°06'0 0.0
2019-Jul-12 17:00N 50°49' W 001°06'0 0.0
2019-Jul-12 16:30N 50°49' W 001°06'0 0.0
2019-Jul-12 16:00N 50°49' W 001°06'0 0.0
2019-Jul-12 15:30N 50°49' W 001°06'2 3.6
2019-Jul-12 15:00N 50°47' W 001°06'714.1
2019-Jul-12 14:31N 50°40' W 001°04'713.6
2019-Jul-12 14:00N 50°34' W 001°09'  

Dump ship's entire track history